Nearby METAR Reports

 

KSJC - San Jose, California, USA
Distance from station: NE 9mi, 14km
Updated: Mon, Feb-18-2019 11:53am CST
Clear
Clear
 Wind from NW
Wind: NW 10 mph , 17 km/h
Temperature: 46°F , 8°C
Wind Chill: 41°F , 5°C
Dew Point: 34°F , 1°C
Humidity: 62%
Barometer: 30.24 inHg , 1024 hPa
Clouds: Clear
Visibility: 10 miles , 16 km
2019/02/18 17:53 KSJC 181753Z 32009KT 10SM CLR 08/01 A3024 RMK AO2 SLP240 T00830011 10083 20011 51018
KNUQ - Moffett Nas/Mtn, California, USA
Distance from station: N 9mi, 14km
Updated: Mon, Feb-18-2019 11:56am CST
Clear
Clear
 Wind from NW
Wind: NW 8 mph , 13 km/h
Temperature: 48°F , 9°C
Wind Chill: 44°F , 7°C
Dew Point: 34°F , 1°C
Humidity: 58%
Barometer: 30.25 inHg , 1024.4 hPa
Clouds: Clear
Visibility: 10 miles , 16 km
2019/02/18 17:56 KNUQ 181756Z 32007KT 290V350 10SM CLR 09/01 A3025 RMK AO2 SLP247 T00890006 10089 20017 51018 $
 
KPAO - Palo Alto, California, USA
Distance from station: NNW 14mi, 23km
Updated: Mon, Feb-18-2019 11:47am CST
Clear
Clear
 Wind from NNW
Wind: NNW 8 mph , 13 km/h
Temperature: 48°F , 9°C
Wind Chill: 44°F , 7°C
Dew Point: 36°F , 2°C
Humidity: 62%
Barometer: 30.26 inHg , 1024.7 hPa
Clouds: Clear
Visibility: 10 miles , 16 km
2019/02/18 17:47 KPAO 181747Z 34007KT 10SM SKC 09/02 A3026
KRHV - San Jose/Reid, California, USA
Distance from station: ENE 12mi, 19km
Updated: Mon, Feb-18-2019 11:55am CST
Clear
Clear
 Wind from NW
Wind: NW 12 mph , 19 km/h
Temperature: 48°F , 9°C
Wind Chill: 43°F , 6°C
Dew Point: 30°F , -1°C
Humidity: 50%
Barometer: 30.22 inHg , 1023.4 hPa
Clouds: Clear
Visibility: 10 miles , 16 km
2019/02/18 17:55 KRHV 181755Z 31010KT 10SM SKC 09/M01 A3022
 
KOAK - Oakland, California, USA
Distance from station: NNW 31mi, 50km
Updated: Mon, Feb-18-2019 11:53am CST
Clear
Clear
 Wind from NW
Wind: NW 12 mph , 19 km/h
Temperature: 50°F , 10°C
Wind Chill: 45°F , 7°C
Dew Point: 28°F , -2°C
Humidity: 43%
Barometer: 30.25 inHg , 1024.4 hPa
Clouds: Clear
Visibility: 10 miles , 16 km
2019/02/18 17:53 KOAK 181753Z 32010KT 10SM CLR 10/M02 A3025 RMK AO2 SLP244 T01001017 10100 20028 51019
KSQL - San Carlos Airpo, California, USA
Distance from station: NW 21mi, 34km
Updated: Mon, Feb-18-2019 11:47am CST
Clear
Clear
 Wind from NNW
Wind: NNW 5 mph , 7 km/h
Temperature: 48°F , 9°C
Wind Chill: 46°F , 8°C
Dew Point: 30°F , -1°C
Humidity: 50%
Barometer: 30.25 inHg , 1024.4 hPa
Clouds: Clear
2019/02/18 17:47 KSQL 181747Z 34004KT SKC 09/M01 A3025
 
KSFO - San Francisco, California, USA
Distance from station: NW 30mi, 49km
Updated: Mon, Feb-18-2019 11:56am CST
Clear
Clear
 Wind from N
Wind: N 10 mph , 17 km/h
Temperature: 50°F , 10°C
Wind Chill: 46°F , 8°C
Dew Point: 28°F , -2°C
Humidity: 43%
Barometer: 30.25 inHg , 1024.4 hPa
Clouds: Clear
Visibility: 10 miles , 16 km
2019/02/18 17:56 KSFO 181756Z 35009KT 10SM CLR 10/M02 A3025 RMK AO2 SLP241 T01001022 10100 20033 51018
KE16 - San Martin, California, USA
Distance from station: ESE 27mi, 43km
Updated: Mon, Feb-18-2019 12:15pm CST
Clear
Clear
 Wind from NW
Wind: NW 15 mph , 24 km/h, Gust: 20 mph , 31 km/h
Temperature: 46°F , 8°C
Wind Chill: 40°F , 4°C
Dew Point: 32°F , 0°C
Humidity: 57%
Barometer: 30.23 inHg , 1023.7 hPa
Clouds: Clear
Visibility: 10 miles , 16 km
2019/02/18 18:15 KE16 181815Z AUTO 31013G17KT 10SM CLR 08/00 A3023 RMK AO2
 
KWVI - Watsonville, California, USA
Distance from station: SSE 27mi, 44km
Updated: Mon, Feb-18-2019 11:53am CST
Clear
Clear
 Wind from SW
Wind: SW 7 mph , 11 km/h
Temperature: 46°F , 8°C
Wind Chill: 42°F , 6°C
Dew Point: 37°F , 3°C
Humidity: 71%
Barometer: 30.22 inHg , 1023.4 hPa
Clouds: Clear
Visibility: 10 miles , 16 km
2019/02/18 17:53 KWVI 181753Z AUTO 22006KT 10SM CLR 08/03 A3022 RMK AO2 SLP235 T00830028 10083 20000 51018
KHAF - Half Moon Bay, California, USA
Distance from station: WNW 31mi, 50km
Updated: Wed, Feb-13-2019 4:15pm CST
NOT Current
Light rain, Overcast
Light rain, Overcast
 Wind from S
Wind: S 33 mph , 54 km/h, Gust: 43 mph , 69 km/h
Temperature: 55°F , 13°C
Dew Point: 54°F , 12°C
Humidity: 94%
Barometer: 29.54 inHg , 1000.3 hPa
Summary: Light rain
Clouds: Overcast
Visibility: 3/4 mile , 1.2 km
Cloud details: Overcast 700 ft
2019/02/13 22:15 KHAF 132215Z AUTO 17029G37KT 3/4SM -RA OVC007 13/12 A2954 RMK AO2
 
KHWD - Hayward, California, USA
Distance from station: N 28mi, 44km
Updated: Mon, Feb-18-2019 11:54am CST
Clear
Clear
 Wind from calm
Wind: Calm
Temperature: 48°F , 9°C
Dew Point: 32°F , 0°C
Humidity: 54%
Barometer: 30.24 inHg , 1024 hPa
Clouds: Clear
Visibility: 10 miles , 16 km
2019/02/18 17:54 KHWD 181754Z 00000KT 10SM CLR 09/00 A3024 RMK AO2 SLP251 T00940000 10094 20022 51018
KLVK - Livermore, California, USA
Distance from station: NNE 31mi, 51km
Updated: Mon, Feb-18-2019 11:53am CST
Few Clouds
Few Clouds
 
Temperature: 45°F , 7°C
Dew Point: 37°F , 3°C
Humidity: 76%
Barometer: 30.22 inHg , 1023.4 hPa
Clouds: Few Clouds
Visibility: 10 miles , 16 km
Cloud details: Few Clouds 100 ft
2019/02/18 17:53 KLVK 181753Z 10SM FEW001 07/03 A3022 RMK AO2 SLP236 T00720033 10072 21017 51015 $